Time;durP1;ratioP1;P1;durP2;ratioP2;P2;SDS_P1;SDS_P2;PMS_P1;PMS_P2;Temp;Humidity;BMP_temperature;BMP_pressure;BME280_temperature;BME280_humidity;BME280_pressure;Samples;Min_cycle;Max_cycle;Signal;HPM_P1;HPM_P2
2022/10/26 00:02:18;;;;;;;0.00;0.00;;;;;;;10.07;100.00;100435.97;5033668;28;20092;-68
2022/10/26 00:04:44;;;;;;;0.00;0.00;;;;;;;10.06;100.00;100445.88;5034766;28;20040;-67
2022/10/26 00:07:10;;;;;;;0.10;0.10;;;;;;;9.93;100.00;100440.69;5034548;28;20143;-66
2022/10/26 00:09:35;;;;;;;0.47;0.15;;;;;;;9.99;100.00;100449.22;5033547;28;20041;-68
2022/10/26 00:12:02;;;;;;;0.00;0.00;;;;;;;9.95;100.00;100444.09;5033637;28;20087;-67
2022/10/26 00:14:27;;;;;;;0.38;0.38;;;;;;;9.95;100.00;100444.09;5035013;28;20108;-67
2022/10/26 00:16:53;;;;;;;0.85;0.70;;;;;;;9.97;100.00;100440.44;5033618;28;20124;-66
2022/10/26 00:19:19;;;;;;;0.00;0.00;;;;;;;9.99;100.00;100452.75;5033092;28;20044;-67
2022/10/26 00:21:45;;;;;;;0.10;0.10;;;;;;;9.98;100.00;100448.38;5034365;28;20041;-67
2022/10/26 00:24:11;;;;;;;0.10;0.10;;;;;;;9.98;100.00;100456.41;5034842;28;20036;-66
2022/10/26 00:26:37;;;;;;;0.05;0.05;;;;;;;9.94;100.00;100455.81;5033007;28;20037;-66
2022/10/26 00:29:04;;;;;;;0.00;0.00;;;;;;;10.03;100.00;100461.41;5032884;28;20037;-68
2022/10/26 00:31:29;;;;;;;0.00;0.00;;;;;;;9.98;100.00;100456.41;5032973;28;20025;-66
2022/10/26 00:33:56;;;;;;;0.00;0.00;;;;;;;9.97;100.00;100465.47;5033095;28;20029;-67
2022/10/26 00:36:23;;;;;;;0.00;0.00;;;;;;;9.94;100.00;100463.03;5034481;28;20033;-67
2022/10/26 00:38:50;;;;;;;0.10;0.10;;;;;;;9.90;100.00;100464.22;5034383;28;20482;-66
2022/10/26 00:41:18;;;;;;;0.10;0.10;;;;;;;9.86;100.00;100458.28;5032629;28;20167;-65
2022/10/26 00:43:44;;;;;;;0.10;0.10;;;;;;;9.85;100.00;100469.13;5034043;28;20450;-66
2022/10/26 00:46:15;;;;;;;0.00;0.00;;;;;;;9.80;100.00;100460.63;5034313;28;20084;-65
2022/10/26 00:48:45;;;;;;;1.63;0.15;;;;;;;9.76;100.00;100465.38;5033827;28;20037;-66
2022/10/26 00:51:33;;;;;;;0.00;0.00;;;;;;;9.81;100.00;100473.91;5034007;28;20068;-66
2022/10/26 00:54:03;;;;;;;0.00;0.00;;;;;;;9.76;100.00;100465.38;5032555;28;20057;-67
2022/10/26 00:56:30;;;;;;;0.28;0.28;;;;;;;9.75;100.00;100469.06;5032745;28;20063;-66
2022/10/26 00:59:01;;;;;;;0.00;0.00;;;;;;;9.79;100.00;100470.50;5033706;28;20065;-67
2022/10/26 01:01:27;;;;;;;0.10;0.10;;;;;;;9.76;100.00;100476.13;5033871;28;20084;-66
2022/10/26 01:03:54;;;;;;;0.00;0.00;;;;;;;9.74;100.00;100472.72;5033690;28;20375;-65
2022/10/26 01:06:20;;;;;;;0.20;0.20;;;;;;;9.68;100.00;100483.94;5031415;28;20029;-65
2022/10/26 01:08:47;;;;;;;1.27;0.10;;;;;;;9.62;100.00;100481.75;5032255;28;20087;-66
2022/10/26 01:11:13;;;;;;;0.20;0.15;;;;;;;9.58;100.00;100485.66;5032081;28;20483;-67
2022/10/26 01:13:40;;;;;;;0.00;0.00;;;;;;;9.62;100.00;100484.44;5033718;28;20029;-64
2022/10/26 01:16:24;;;;;;;0.10;0.08;;;;;;;9.56;100.00;100487.59;5034010;28;20486;-65
2022/10/26 01:19:19;;;;;;;0.20;0.10;;;;;;;9.56;100.00;100490.28;5033281;28;20494;-66
2022/10/26 01:22:07;;;;;;;0.00;0.00;;;;;;;9.47;100.00;100491.03;5028049;28;20091;-66
2022/10/26 01:24:58;;;;;;;0.80;0.20;;;;;;;9.43;100.00;100490.41;5033422;28;20120;-68
2022/10/26 01:27:35;;;;;;;0.25;0.20;;;;;;;9.35;100.00;100493.69;5032033;28;20029;-66
2022/10/26 01:30:24;;;;;;;0.10;0.10;;;;;;;9.26;100.00;100499.81;5033229;28;20033;-66
2022/10/26 01:33:04;;;;;;;0.05;0.05;;;;;;;9.31;100.00;100500.28;5032167;28;20025;-67
2022/10/26 01:35:51;;;;;;;0.00;0.00;;;;;;;9.34;100.00;100510.78;5032107;28;20395;-66
2022/10/26 01:38:55;;;;;;;0.00;0.00;;;;;;;9.31;100.00;100500.28;5033117;28;20033;-66
2022/10/26 01:41:26;;;;;;;0.10;0.10;;;;;;;9.35;100.00;100503.56;5035251;28;20025;-67
2022/10/26 01:44:01;;;;;;;0.32;0.15;;;;;;;9.30;100.00;100503.09;5031413;28;20037;-65
2022/10/26 01:46:29;;;;;;;;;;;;;;;9.33;100.00;100506.38;5033220;28;20029;-65
2022/10/26 01:48:59;;;;;;;0.00;0.00;;;;;;;9.38;100.00;100507.84;5032873;28;20023;-66
2022/10/26 01:51:26;;;;;;;0.00;0.00;;;;;;;9.26;100.00;100515.91;5031068;28;20032;-66
2022/10/26 01:53:52;;;;;;;0.05;0.05;;;;;;;9.26;100.00;100513.22;5031294;28;20409;-66
2022/10/26 01:56:24;;;;;;;1.17;0.30;;;;;;;9.24;100.00;100507.13;5031524;28;20116;-66
2022/10/26 01:59:12;;;;;;;0.00;0.00;;;;;;;9.22;100.00;100514.41;5032592;28;20099;-66
2022/10/26 02:01:47;;;;;;;0.10;0.10;;;;;;;9.22;100.00;100522.47;5031379;28;20029;-65
2022/10/26 02:04:40;;;;;;;0.00;0.00;;;;;;;9.30;100.00;100522.72;5031494;28;20509;-67
2022/10/26 02:07:20;;;;;;;0.00;0.00;;;;;;;9.29;100.00;100530.91;5032544;28;20061;-65
2022/10/26 02:09:54;;;;;;;0.00;0.00;;;;;;;9.30;100.00;100528.09;5031163;28;20394;-67
2022/10/26 02:12:32;;;;;;;0.00;0.00;;;;;;;9.24;100.00;100531.28;5032349;28;20033;-65
2022/10/26 02:15:12;;;;;;;0.00;0.00;;;;;;;9.28;100.00;100535.41;5032335;28;20040;-65
2022/10/26 02:17:52;;;;;;;0.00;0.00;;;;;;;9.26;100.00;100532.00;5031808;28;20040;-67
2022/10/26 02:20:30;;;;;;;0.00;0.00;;;;;;;9.13;100.00;100536.59;5030754;28;20032;-67
2022/10/26 02:22:59;;;;;;;0.00;0.00;;;;;;;9.28;100.00;100539.94;5031942;28;20038;-68
2022/10/26 02:25:30;;;;;;;0.00;0.00;;;;;;;9.20;100.00;100536.97;5032334;28;20429;-65
2022/10/26 02:28:01;;;;;;;0.00;0.00;;;;;;;9.20;100.00;100543.19;5032657;28;20033;-65
2022/10/26 02:30:27;;;;;;;1.45;1.00;;;;;;;9.13;100.00;100544.66;5032250;28;20065;-67
2022/10/26 02:32:55;;;;;;;0.00;0.00;;;;;;;9.20;100.00;100542.34;5032107;28;20470;-64
2022/10/26 02:35:34;;;;;;;0.00;0.00;;;;;;;9.20;100.00;100539.66;5032106;28;20116;-65
2022/10/26 02:38:03;;;;;;;0.32;0.32;;;;;;;9.15;100.00;100552.56;5032167;28;20107;-65
2022/10/26 02:40:31;;;;;;;0.00;0.00;;;;;;;9.08;100.00;100549.53;5030870;28;20475;-66
2022/10/26 02:43:03;;;;;;;0.00;0.00;;;;;;;9.03;100.00;100551.69;5030450;28;20033;-65
2022/10/26 02:45:46;;;;;;;0.00;0.00;;;;;;;9.03;100.00;100557.03;5031745;28;20479;-67
2022/10/26 02:48:11;;;;;;;0.00;0.00;;;;;;;9.02;100.00;100555.34;5030699;28;20048;-67
2022/10/26 02:50:49;;;;;;;0.00;0.00;;;;;;;8.98;100.00;100560.09;5030726;28;20406;-65
2022/10/26 02:53:28;;;;;;;0.00;0.00;;;;;;;9.03;100.00;100562.41;5031591;28;20050;-66
2022/10/26 02:55:54;;;;;;;0.00;0.00;;;;;;;8.91;100.00;100566.06;5031742;28;20033;-66
2022/10/26 02:58:30;;;;;;;0.00;0.00;;;;;;;8.99;100.00;100571.66;5030791;28;20037;-66
2022/10/26 03:00:57;;;;;;;0.00;0.00;;;;;;;8.92;100.00;100557.88;5031958;28;20029;-67
2022/10/26 03:03:23;;;;;;;0.00;0.00;;;;;;;8.93;100.00;100562.28;5031869;28;20033;-66
2022/10/26 03:05:48;;;;;;;0.00;0.00;;;;;;;8.91;100.00;100558.00;5031807;28;20040;-67
2022/10/26 03:08:14;;;;;;;0.00;0.00;;;;;;;8.91;100.00;100568.72;5031526;28;20033;-66
2022/10/26 03:10:42;;;;;;;0.00;0.00;;;;;;;9.01;100.00;100564.34;5030679;28;20033;-66
2022/10/26 03:13:09;;;;;;;0.00;0.00;;;;;;;8.98;100.00;100575.31;5031491;28;20048;-66
2022/10/26 03:15:35;;;;;;;0.00;0.00;;;;;;;8.93;100.00;100572.16;5030563;28;20384;-66
2022/10/26 03:18:01;;;;;;;0.00;0.00;;;;;;;8.90;100.00;100577.72;5031626;28;20235;-66
2022/10/26 03:20:27;;;;;;;0.25;0.25;;;;;;;8.85;100.00;100574.53;5031844;28;20041;-66
2022/10/26 03:22:52;;;;;;;0.00;0.00;;;;;;;8.87;100.00;100577.94;5032307;28;20040;-66
2022/10/26 03:25:18;;;;;;;0.00;0.00;;;;;;;8.85;100.00;100585.25;5032206;28;20167;-65
2022/10/26 03:27:43;;;;;;;0.00;0.00;;;;;;;8.80;100.00;100588.28;5030879;28;20095;-67
2022/10/26 03:30:10;;;;;;;0.00;0.00;;;;;;;8.76;100.00;100591.34;5032938;28;20029;-66
2022/10/26 03:32:35;;;;;;;0.10;0.10;;;;;;;8.72;100.00;100591.53;5035510;28;20042;-67
2022/10/26 03:35:01;;;;;;;0.00;0.00;;;;;;;8.78;100.00;100594.75;5035048;28;20038;-65
2022/10/26 03:37:27;;;;;;;0.00;0.00;;;;;;;8.73;100.00;100595.06;5035347;28;20033;-67
2022/10/26 03:39:52;;;;;;;0.30;0.30;;;;;;;8.70;100.00;100609.56;5034999;28;20037;-66
2022/10/26 03:42:18;;;;;;;0.00;0.00;;;;;;;8.78;100.00;100600.13;5034038;28;20505;-67
2022/10/26 03:44:43;;;;;;;0.00;0.00;;;;;;;8.78;100.00;100605.47;5035204;28;20033;-67
2022/10/26 03:47:09;;;;;;;0.00;0.00;;;;;;;8.69;100.00;100607.84;5033819;28;20033;-65
2022/10/26 03:49:35;;;;;;;0.00;0.00;;;;;;;8.69;100.00;100612.38;5033536;28;20137;-67
2022/10/26 03:52:00;;;;;;;0.00;0.00;;;;;;;8.75;100.00;100622.66;5033382;28;20022;-67
2022/10/26 03:54:26;;;;;;;0.08;0.08;;;;;;;8.65;100.00;100617.09;5034612;28;20506;-67
2022/10/26 03:56:52;;;;;;;0.38;0.38;;;;;;;8.69;100.00;100623.94;5033504;28;20061;-68
2022/10/26 03:59:17;;;;;;;0.10;0.10;;;;;;;8.70;100.00;100620.28;5033331;28;20045;-67
2022/10/26 04:01:43;;;;;;;0.10;0.10;;;;;;;8.65;100.00;100625.13;5033661;28;20486;-67
2022/10/26 04:04:09;;;;;;;0.00;0.00;;;;;;;8.63;100.00;100635.13;5033350;28;20029;-66
2022/10/26 04:06:35;;;;;;;0.00;0.00;;;;;;;8.68;100.00;100641.00;5034518;28;20026;-68
2022/10/26 04:09:01;;;;;;;0.10;0.10;;;;;;;8.63;100.00;100640.47;5034444;28;20120;-67
2022/10/26 04:11:28;;;;;;;0.20;0.20;;;;;;;8.69;100.00;100641.84;5033460;28;20379;-66
2022/10/26 04:13:54;;;;;;;0.32;0.20;;;;;;;8.70;100.00;100633.69;5034767;28;20026;-67
2022/10/26 04:16:20;;;;;;;0.00;0.00;;;;;;;8.65;100.00;100640.38;5034458;28;20086;-67
2022/10/26 04:18:47;;;;;;;0.00;0.00;;;;;;;8.65;100.00;100646.59;5034247;28;20338;-66
2022/10/26 04:21:13;;;;;;;0.20;0.20;;;;;;;8.63;100.00;100651.19;5034064;28;20060;-67
2022/10/26 04:23:38;;;;;;;0.20;0.20;;;;;;;8.62;100.00;100646.81;5033219;28;20478;-66
2022/10/26 04:26:05;;;;;;;0.00;0.00;;;;;;;8.57;100.00;100651.66;5034016;28;20394;-68
2022/10/26 04:28:30;;;;;;;0.00;0.00;;;;;;;8.62;100.00;100654.84;5034079;28;20052;-67
2022/10/26 04:30:56;;;;;;;0.13;0.13;;;;;;;8.65;100.00;100653.78;5034297;28;20033;-67
2022/10/26 04:33:21;;;;;;;0.00;0.00;;;;;;;8.73;100.00;100657.59;5032436;28;20339;-67
2022/10/26 04:35:47;;;;;;;0.17;0.17;;;;;;;8.61;100.00;100652.28;5034235;28;20043;-68
2022/10/26 04:38:13;;;;;;;1.85;0.38;;;;;;;8.65;100.00;100662.66;5032161;28;20025;-67
2022/10/26 04:40:38;;;;;;;2.40;0.40;;;;;;;8.61;100.00;100663.88;5031815;28;20049;-69
2022/10/26 04:43:04;;;;;;;0.00;0.00;;;;;;;8.68;100.00;100667.78;5033801;28;20107;-66
2022/10/26 04:45:30;;;;;;;0.00;0.00;;;;;;;8.78;100.00;100667.13;5033933;28;20029;-66
2022/10/26 04:48:05;;;;;;;0.38;0.15;;;;;;;8.73;100.00;100667.44;5032042;28;20030;-66
2022/10/26 04:50:30;;;;;;;;;;;;;;;8.76;100.00;100677.13;5032430;28;20053;-67
2022/10/26 04:52:56;;;;;;;0.00;0.00;;;;;;;8.63;100.00;100675.31;5033387;28;19957;-68
2022/10/26 04:55:22;;;;;;;0.00;0.00;;;;;;;8.56;100.00;100681.22;5033688;28;20033;-66
2022/10/26 04:57:48;;;;;;;0.00;0.00;;;;;;;8.49;100.00;100680.84;5034025;28;20038;-68
2022/10/26 05:00:14;;;;;;;0.05;0.05;;;;;;;8.64;100.00;100684.22;5033335;28;20040;-68
2022/10/26 05:02:39;;;;;;;0.00;0.00;;;;;;;8.58;100.00;100685.53;5033059;28;20032;-67
2022/10/26 05:05:05;;;;;;;0.00;0.00;;;;;;;8.51;100.00;100684.25;5031515;28;20033;-67
2022/10/26 05:07:30;;;;;;;0.00;0.00;;;;;;;8.44;100.00;100691.03;5031996;28;20040;-67
2022/10/26 05:09:56;;;;;;;0.00;0.00;;;;;;;8.59;100.00;100692.59;5032680;28;20072;-66
2022/10/26 05:12:22;;;;;;;0.00;0.00;;;;;;;8.60;100.00;100697.00;5033232;28;20084;-68
2022/10/26 05:14:47;;;;;;;0.00;0.00;;;;;;;8.64;100.00;100705.66;5033146;28;20029;-66
2022/10/26 05:17:13;;;;;;;0.00;0.00;;;;;;;8.67;100.00;100706.28;5031412;28;20466;-66
2022/10/26 05:19:39;;;;;;;4.30;0.90;;;;;;;8.63;100.00;100714.66;5032281;28;20394;-67
2022/10/26 05:22:04;;;;;;;0.00;0.00;;;;;;;8.56;100.00;100724.97;5031152;28;20043;-67
2022/10/26 05:24:30;;;;;;;0.00;0.00;;;;;;;8.51;100.00;100724.44;5031330;28;20034;-67
2022/10/26 05:26:55;;;;;;;0.10;0.10;;;;;;;8.52;100.00;100718.13;5030927;28;20120;-76
2022/10/26 05:29:21;;;;;;;0.98;0.47;;;;;;;8.54;100.00;100720.69;5032732;28;20041;-66
2022/10/26 05:31:47;;;;;;;0.20;0.20;;;;;;;8.49;100.00;100729.06;5032254;28;20040;-66
2022/10/26 05:34:12;;;;;;;0.03;0.03;;;;;;;8.64;100.00;100724.41;5030362;28;20087;-68
2022/10/26 05:36:38;;;;;;;0.00;0.00;;;;;;;8.48;100.00;100734.53;5031337;28;20064;-67
2022/10/26 05:39:04;;;;;;;0.00;0.00;;;;;;;8.46;100.00;100734.66;5032136;28;20494;-69
2022/10/26 05:41:29;;;;;;;0.00;0.00;;;;;;;8.56;100.00;100735.69;5032660;28;20033;-67
2022/10/26 05:43:57;;;;;;;0.00;0.00;;;;;;;8.50;100.00;100741.50;5030050;28;20037;-66
2022/10/26 05:46:23;;;;;;;0.00;0.00;;;;;;;8.38;100.00;100747.72;5029895;28;20094;-66
2022/10/26 05:48:48;;;;;;;0.00;0.00;;;;;;;8.50;100.00;100751.34;5031388;28;20033;-68
2022/10/26 05:51:15;;;;;;;0.10;0.10;;;;;;;8.49;100.00;100760.34;5031584;28;20462;-68
2022/10/26 05:53:40;;;;;;;0.00;0.00;;;;;;;8.48;100.00;100761.31;5028887;28;20073;-69
2022/10/26 05:56:37;;;;;;;0.00;0.00;;;;;;;8.45;100.00;100770.44;5031406;28;20443;-68
2022/10/26 05:59:09;;;;;;;0.00;0.00;;;;;;;8.51;100.00;100770.00;5031241;28;20053;-68
2022/10/26 06:01:53;;;;;;;0.00;0.00;;;;;;;8.50;100.00;100770.97;5030229;28;20186;-66
2022/10/26 06:04:27;;;;;;;0.00;0.00;;;;;;;8.50;100.00;100776.31;5029501;28;20048;-68
2022/10/26 06:06:54;;;;;;;0.00;0.00;;;;;;;8.55;100.00;100781.34;5029669;28;20478;-67
2022/10/26 06:09:20;;;;;;;0.00;0.00;;;;;;;8.39;100.00;100778.91;5031096;28;20113;-68
2022/10/26 06:11:46;;;;;;;0.00;0.00;;;;;;;8.43;100.00;100775.06;5029983;28;20068;-68
2022/10/26 06:14:12;;;;;;;0.00;0.00;;;;;;;8.39;100.00;100786.94;5031127;28;20034;-68
2022/10/26 06:16:56;;;;;;;0.10;0.10;;;;;;;8.44;100.00;100780.31;5030085;28;20417;-69
2022/10/26 06:19:28;;;;;;;1.42;0.47;;;;;;;8.45;100.00;100781.16;5029483;28;20029;-68
2022/10/26 06:22:27;;;;;;;0.10;0.10;;;;;;;8.56;100.00;100799.13;5029164;28;20110;-68
2022/10/26 06:25:08;;;;;;;0.20;0.20;;;;;;;8.52;100.00;100803.00;5031340;28;20079;-68
2022/10/26 06:27:45;;;;;;;0.00;0.00;;;;;;;8.44;100.00;100806.25;5031254;28;20030;-69
2022/10/26 06:30:11;;;;;;;0.00;0.00;;;;;;;8.49;100.00;100814.81;5029259;28;20057;-67
2022/10/26 06:32:44;;;;;;;0.10;0.10;;;;;;;8.46;100.00;100808.81;5029493;28;20029;-69
2022/10/26 06:35:34;;;;;;;0.10;0.10;;;;;;;8.44;100.00;100816.97;5028820;28;20132;-69
2022/10/26 06:38:04;;;;;;;0.00;0.00;;;;;;;8.56;100.00;100821.44;5029597;28;20120;-69
2022/10/26 06:40:32;;;;;;;0.10;0.10;;;;;;;8.45;100.00;100821.34;5028963;28;20397;-70
2022/10/26 06:42:59;;;;;;;0.00;0.00;;;;;;;8.49;100.00;100825.53;5030083;28;20144;-70
2022/10/26 06:45:25;;;;;;;0.00;0.00;;;;;;;8.54;100.00;100833.22;5029615;28;20573;-69
2022/10/26 06:48:03;;;;;;;0.00;0.00;;;;;;;8.59;100.00;100826.59;5028784;28;20128;-68
2022/10/26 06:50:52;;;;;;;0.00;0.00;;;;;;;8.58;100.00;100837.44;5030466;28;20033;-68
2022/10/26 06:53:38;;;;;;;0.20;0.20;;;;;;;8.55;100.00;100830.44;5029054;28;20071;-69
2022/10/26 06:56:04;;;;;;;0.60;0.60;;;;;;;8.61;100.00;100837.22;5029552;28;20120;-69
2022/10/26 06:58:35;;;;;;;0.00;0.00;;;;;;;8.57;100.00;100841.94;5029434;28;20037;-70
2022/10/26 07:01:01;;;;;;;0.13;0.13;;;;;;;8.60;100.00;100848.91;5029990;28;20463;-67
2022/10/26 07:03:26;;;;;;;0.00;0.00;;;;;;;8.55;100.00;100845.66;5030770;28;20030;-70
2022/10/26 07:05:52;;;;;;;0.10;0.10;;;;;;;8.53;100.00;100853.81;5033275;28;20033;-70
2022/10/26 07:08:18;;;;;;;0.73;0.20;;;;;;;8.44;100.00;100859.84;5034885;28;20086;-69
2022/10/26 07:10:45;;;;;;;0.00;0.00;;;;;;;8.43;100.00;100858.97;5034730;28;20033;-69
2022/10/26 07:13:11;;;;;;;0.00;0.00;;;;;;;8.57;100.00;100862.53;5034619;28;20037;-69
2022/10/26 07:15:39;;;;;;;0.10;0.10;;;;;;;8.52;100.00;100862.81;5033257;28;20030;-69
2022/10/26 07:18:06;;;;;;;0.03;0.03;;;;;;;8.57;100.00;100865.19;5034442;28;20434;-67
2022/10/26 07:20:39;;;;;;;0.00;0.00;;;;;;;8.38;100.00;100871.81;5033001;28;20040;-68
2022/10/26 07:23:06;;;;;;;0.00;0.00;;;;;;;8.49;100.00;100872.91;5034767;28;20128;-68
2022/10/26 07:25:33;;;;;;;0.00;0.00;;;;;;;8.40;100.00;100869.06;5032829;28;20120;-68
2022/10/26 07:27:59;;;;;;;0.35;0.30;;;;;;;8.47;100.00;100869.47;5034691;28;20065;-69
2022/10/26 07:30:26;;;;;;;0.55;0.28;;;;;;;8.56;100.00;100880.38;5033800;28;20122;-68
2022/10/26 07:32:58;;;;;;;0.10;0.10;;;;;;;8.61;100.00;100877.41;5033616;28;20052;-68
2022/10/26 07:35:24;;;;;;;0.00;0.00;;;;;;;8.74;100.00;100884.50;5033392;28;20474;-68
2022/10/26 07:37:49;;;;;;;0.00;0.00;;;;;;;8.64;100.00;100899.50;5033162;28;20034;-68
2022/10/26 07:40:15;;;;;;;0.00;0.00;;;;;;;8.73;100.00;100898.88;5034597;28;20079;-68
2022/10/26 07:42:40;;;;;;;0.00;0.00;;;;;;;8.63;100.00;100903.13;5032919;28;20036;-69
2022/10/26 07:45:07;;;;;;;0.13;0.10;;;;;;;8.63;100.00;100903.13;5033326;28;20106;-71
2022/10/26 07:47:33;;;;;;;0.00;0.00;;;;;;;8.73;100.00;100904.22;5034304;28;20033;-69
2022/10/26 07:49:58;;;;;;;0.00;0.00;;;;;;;8.78;100.00;100898.53;5034639;28;20029;-68
2022/10/26 07:52:25;;;;;;;0.22;0.10;;;;;;;8.68;100.00;100906.34;5032972;28;20091;-68
2022/10/26 07:54:50;;;;;;;0.65;0.15;;;;;;;8.91;100.00;100915.47;5032907;28;20060;-68
2022/10/26 07:57:16;;;;;;;0.00;0.00;;;;;;;8.92;100.00;100919.00;5034110;28;20029;-68
2022/10/26 07:59:42;;;;;;;0.00;0.00;;;;;;;9.00;100.00;100916.63;5034901;28;20124;-70
2022/10/26 08:02:09;;;;;;;0.00;0.00;;;;;;;8.87;100.00;100919.31;5033434;28;20183;-69
2022/10/26 08:04:34;;;;;;;0.00;0.00;;;;;;;8.93;100.00;100923.41;5034521;28;20029;-69
2022/10/26 08:07:00;;;;;;;0.00;0.00;;;;;;;8.76;100.00;100921.91;5032458;28;20030;-69
2022/10/26 08:09:25;;;;;;;0.20;0.10;;;;;;;8.85;100.00;100936.47;5034159;28;20033;-68
2022/10/26 08:11:51;;;;;;;0.00;0.00;;;;;;;8.88;100.00;100929.06;5032517;28;20048;-69
2022/10/26 08:14:18;;;;;;;0.00;0.00;;;;;;;8.90;100.00;100928.97;5034018;28;20033;-68
2022/10/26 08:16:44;;;;;;;0.00;0.00;;;;;;;8.94;100.00;100935.84;5033413;28;20033;-69
2022/10/26 08:19:10;;;;;;;0.00;0.00;;;;;;;9.15;100.00;100926.28;5033189;28;20470;-69
2022/10/26 08:21:35;;;;;;;0.00;0.00;;;;;;;9.32;100.00;100933.97;5033739;28;20040;-69
2022/10/26 08:24:02;;;;;;;0.00;0.00;;;;;;;9.14;100.00;100929.91;5032702;28;20032;-69
2022/10/26 08:26:28;;;;;;;0.00;0.00;;;;;;;9.10;100.00;100936.47;5031980;28;20029;-70
2022/10/26 08:28:53;;;;;;;0.00;0.00;;;;;;;9.16;100.00;100938.72;5033720;28;20076;-69
2022/10/26 08:31:19;;;;;;;0.35;0.35;;;;;;;9.20;100.00;100944.72;5033740;28;20060;-69
2022/10/26 08:33:45;;;;;;;0.00;0.00;;;;;;;9.22;100.00;100943.63;5033890;28;20156;-68
2022/10/26 08:36:11;;;;;;;0.00;0.00;;;;;;;9.06;100.00;100959.09;5032252;28;20466;-70
2022/10/26 08:38:37;;;;;;;0.00;0.00;;;;;;;9.03;100.00;100970.03;5032475;28;20037;-69
2022/10/26 08:41:08;;;;;;;0.03;0.03;;;;;;;9.04;100.00;100961.88;5031654;28;20026;-70
2022/10/26 08:43:42;;;;;;;0.00;0.00;;;;;;;9.10;100.00;100960.63;5033153;28;20113;-70
2022/10/26 08:46:16;;;;;;;0.00;0.00;;;;;;;9.03;100.00;100964.69;5033551;28;20035;-70
2022/10/26 08:48:48;;;;;;;0.20;0.20;;;;;;;8.99;100.00;100968.56;5031932;28;20049;-70
2022/10/26 08:51:25;;;;;;;0.00;0.00;;;;;;;8.96;100.00;100966.94;5032941;28;20562;-69
2022/10/26 08:54:07;;;;;;;0.00;0.00;;;;;;;8.94;100.00;100984.13;5033534;28;20053;-70
2022/10/26 08:56:53;;;;;;;0.10;0.10;;;;;;;9.07;100.00;100976.94;5033908;28;20030;-69
2022/10/26 08:59:31;;;;;;;0.10;0.10;;;;;;;8.84;100.00;100985.72;5031628;28;20037;-68
2022/10/26 09:01:57;;;;;;;0.08;0.08;;;;;;;8.95;100.00;100980.47;5031647;28;20034;-70
2022/10/26 09:04:27;;;;;;;0.13;0.13;;;;;;;8.97;100.00;100982.06;5031461;28;20040;-69
2022/10/26 09:07:15;;;;;;;0.15;0.13;;;;;;;9.07;100.00;100987.66;5031812;28;20508;-69
2022/10/26 09:10:02;;;;;;;0.00;0.00;;;;;;;9.19;100.00;100991.28;5031639;28;20037;-71
2022/10/26 09:13:00;;;;;;;1.75;0.20;;;;;;;9.09;100.00;100991.09;5032570;28;20083;-70
2022/10/26 09:15:41;;;;;;;1.90;0.40;;;;;;;9.22;100.00;100996.44;5030001;28;20048;-70
2022/10/26 09:18:28;;;;;;;0.00;0.00;;;;;;;9.17;100.00;100998.59;5031736;28;20136;-70
2022/10/26 09:21:16;;;;;;;0.15;0.10;;;;;;;9.30;100.00;101011.03;5031444;28;20398;-70
2022/10/26 09:23:49;;;;;;;0.28;0.20;;;;;;;9.14;100.00;101014.91;5031432;28;20029;-70
2022/10/26 09:26:31;;;;;;;0.00;0.00;;;;;;;9.16;100.00;101013.81;5032570;28;20040;-71
2022/10/26 09:29:01;;;;;;;0.00;0.00;;;;;;;9.41;100.00;101006.75;5030998;28;20030;-72
2022/10/26 09:31:29;;;;;;;0.10;0.10;;;;;;;9.29;100.00;101009.31;5030482;28;20048;-70
2022/10/26 09:33:55;;;;;;;0.10;0.10;;;;;;;9.23;100.00;101009.72;5031017;28;20029;-70
2022/10/26 09:36:21;;;;;;;0.00;0.00;;;;;;;9.20;100.00;101014.47;5031319;28;20085;-70
2022/10/26 09:39:25;;;;;;;0.10;0.10;;;;;;;9.23;100.00;101012.41;5030616;28;20409;-70
2022/10/26 09:41:57;;;;;;;0.32;0.15;;;;;;;9.22;100.00;101008.00;5032200;28;20056;-70
2022/10/26 09:44:42;;;;;;;0.38;0.38;;;;;;;9.32;100.00;101009.09;5032044;28;20037;-71
2022/10/26 09:47:20;;;;;;;0.10;0.10;;;;;;;9.37;100.00;101015.94;5032059;28;20498;-69
2022/10/26 09:49:57;;;;;;;0.03;0.03;;;;;;;9.48;100.00;101019.59;5030547;28;20120;-70
2022/10/26 09:52:23;;;;;;;0.10;0.10;;;;;;;9.45;100.00;101013.59;5030595;28;20049;-71
2022/10/26 09:54:49;;;;;;;0.00;0.00;;;;;;;9.54;100.00;101029.03;5030324;28;20133;-70
2022/10/26 09:57:17;;;;;;;0.10;0.10;;;;;;;9.61;100.00;101035.69;5030213;28;20478;-70
2022/10/26 09:59:46;;;;;;;1.65;0.20;;;;;;;9.61;99.29;101035.69;5030076;28;20040;-70
2022/10/26 10:02:44;;;;;;;0.05;0.05;;;;;;;9.59;98.70;101037.63;5031912;28;20037;-71
2022/10/26 10:05:25;;;;;;;0.00;0.00;;;;;;;9.76;97.44;101025.69;5029948;28;20029;-70
2022/10/26 10:08:14;;;;;;;0.20;0.20;;;;;;;9.53;97.26;101038.91;5031459;28;20083;-70
2022/10/26 10:10:57;;;;;;;0.20;0.20;;;;;;;9.43;96.73;101034.31;5031810;28;20033;-71
2022/10/26 10:13:29;;;;;;;0.20;0.20;;;;;;;9.60;97.25;101039.34;5031182;28;20163;-70
2022/10/26 10:16:10;;;;;;;0.00;0.00;;;;;;;9.69;96.88;101037.81;5029638;28;20026;-71
2022/10/26 10:18:38;;;;;;;0.00;0.00;;;;;;;9.46;95.99;101042.16;5031061;28;20037;-72
2022/10/26 10:21:05;;;;;;;0.20;0.20;;;;;;;9.33;97.12;101048.38;5029984;28;20044;-70
2022/10/26 10:23:45;;;;;;;0.20;0.20;;;;;;;9.33;97.51;101048.38;5030066;28;20040;-73
2022/10/26 10:26:10;;;;;;;0.10;0.05;;;;;;;9.40;97.22;101042.56;5030052;28;20034;-73
2022/10/26 10:28:37;;;;;;;0.55;0.10;;;;;;;9.65;97.24;101047.91;5031498;28;20095;-70
2022/10/26 10:31:18;;;;;;;0.10;0.10;;;;;;;9.76;95.82;101045.34;5031480;28;20053;-70
2022/10/26 10:33:44;;;;;;;0.45;0.22;;;;;;;9.67;95.55;101045.97;5031795;28;20037;-70
2022/10/26 10:36:18;;;;;;;0.75;0.40;;;;;;;9.60;95.41;101044.72;5031514;28;20040;-72
2022/10/26 10:38:48;;;;;;;0.20;0.17;;;;;;;9.58;95.65;101050.19;5029581;28;20067;-72
2022/10/26 10:41:35;;;;;;;0.00;0.00;;;;;;;9.65;95.16;101053.28;5029593;28;20060;-70
2022/10/26 10:44:06;;;;;;;0.10;0.10;;;;;;;9.34;95.25;101066.19;5031121;28;20059;-71
2022/10/26 10:46:33;;;;;;;0.00;0.00;;;;;;;9.29;94.86;101068.34;5029989;28;20036;-71
2022/10/26 10:49:15;;;;;;;0.00;0.00;;;;;;;9.26;95.88;101084.66;5030927;28;20034;-70
2022/10/26 10:51:43;;;;;;;0.05;0.05;;;;;;;9.22;95.22;101088.50;5031268;28;20030;-70
2022/10/26 10:54:31;;;;;;;0.00;0.00;;;;;;;9.25;95.02;101082.94;5028726;28;20640;-73
2022/10/26 10:57:08;;;;;;;0.00;0.00;;;;;;;9.22;95.43;101088.50;5030915;28;20036;-73
2022/10/26 10:59:55;;;;;;;0.00;0.00;;;;;;;9.03;95.87;101082.69;5030921;28;20447;-70
2022/10/26 11:03:15;;;;;;;0.10;0.10;;;;;;;9.29;95.29;101095.19;5029591;28;20037;-71
2022/10/26 11:05:56;;;;;;;0.00;0.00;;;;;;;9.31;95.39;101098.59;5012231;28;20052;-70
2022/10/26 11:08:27;;;;;;;0.10;0.10;;;;;;;9.32;96.27;101104.84;5029183;28;20033;-69
2022/10/26 11:11:00;;;;;;;0.20;0.20;;;;;;;9.34;95.91;101101.06;5030385;28;20077;-70
2022/10/26 11:13:36;;;;;;;0.20;0.10;;;;;;;9.21;96.15;101104.72;5029382;28;20030;-70
2022/10/26 11:16:15;;;;;;;0.00;0.00;;;;;;;9.15;95.74;101108.69;5029944;28;20375;-69
2022/10/26 11:18:48;;;;;;;0.00;0.00;;;;;;;9.07;96.54;101116.41;5029907;28;20387;-70
2022/10/26 11:21:36;;;;;;;0.00;0.00;;;;;;;9.25;95.72;101120.50;5029979;28;20084;-71
2022/10/26 11:24:21;;;;;;;0.00;0.00;;;;;;;9.31;95.54;101120.06;5030708;28;20040;-74
2022/10/26 11:26:54;;;;;;;0.25;0.10;;;;;;;9.25;95.40;101119.66;5030881;28;20029;-71
2022/10/26 11:29:25;;;;;;;0.20;0.10;;;;;;;9.52;94.59;101122.22;5031042;28;20033;-71
2022/10/26 11:32:01;;;;;;;0.00;0.00;;;;;;;9.44;94.20;101127.28;5030194;28;20044;-70
2022/10/26 11:34:42;;;;;;;0.10;0.10;;;;;;;9.39;94.46;101121.34;5030687;28;20029;-70
2022/10/26 11:37:13;;;;;;;0.70;0.20;;;;;;;9.50;94.35;101118.78;5030652;28;20040;-69
2022/10/26 11:40:00;;;;;;;0.10;0.10;;;;;;;9.39;94.67;101130.25;5029358;28;20461;-71
2022/10/26 11:42:33;;;;;;;0.77;0.65;;;;;;;9.39;94.62;101137.47;5031034;28;20385;-70
2022/10/26 11:45:12;;;;;;;1.75;0.35;;;;;;;9.30;94.42;101134.47;5030818;28;20029;-70
2022/10/26 11:47:55;;;;;;;0.00;0.00;;;;;;;9.30;93.34;101136.28;5029346;28;20458;-70